sensor_id;sensor_type;location;lat;lon;timestamp;pressure;altitude;pressure_sealevel;temperature;humidity
8637;BME280;4356;49.068;8.658;2023-03-23T00:01:10;99239.25;;;19.58;36.84
8637;BME280;4356;49.068;8.658;2023-03-23T00:03:37;99224.94;;;19.51;36.95
8637;BME280;4356;49.068;8.658;2023-03-23T00:06:03;99229.91;;;19.54;37.00
8637;BME280;4356;49.068;8.658;2023-03-23T00:08:34;99233.19;;;19.56;37.04
8637;BME280;4356;49.068;8.658;2023-03-23T00:11:11;99232.38;;;19.56;36.81
8637;BME280;4356;49.068;8.658;2023-03-23T00:13:41;99224.19;;;19.56;37.09
8637;BME280;4356;49.068;8.658;2023-03-23T00:16:11;99227.16;;;19.54;37.10
8637;BME280;4356;49.068;8.658;2023-03-23T00:18:54;99223.94;;;19.57;37.01
8637;BME280;4356;49.068;8.658;2023-03-23T00:21:25;99213.28;;;19.56;37.02
8637;BME280;4356;49.068;8.658;2023-03-23T00:24:09;99216.84;;;19.56;37.07
8637;BME280;4356;49.068;8.658;2023-03-23T00:26:40;99212.44;;;19.55;37.17
8637;BME280;4356;49.068;8.658;2023-03-23T00:29:20;99198.50;;;19.52;36.99
8637;BME280;4356;49.068;8.658;2023-03-23T00:31:49;99195.19;;;19.49;37.23
8637;BME280;4356;49.068;8.658;2023-03-23T00:34:16;99187.59;;;19.52;37.17
8637;BME280;4356;49.068;8.658;2023-03-23T00:36:47;99172.72;;;19.42;37.31
8637;BME280;4356;49.068;8.658;2023-03-23T00:39:14;99190.06;;;19.53;37.13
8637;BME280;4356;49.068;8.658;2023-03-23T00:41:42;99180.16;;;19.47;37.06
8637;BME280;4356;49.068;8.658;2023-03-23T00:44:08;99190.31;;;19.52;37.11
8637;BME280;4356;49.068;8.658;2023-03-23T00:46:34;99174.38;;;19.43;37.18
8637;BME280;4356;49.068;8.658;2023-03-23T00:49:13;99183.47;;;19.49;37.25
8637;BME280;4356;49.068;8.658;2023-03-23T00:51:40;99170.81;;;19.43;37.06
8637;BME280;4356;49.068;8.658;2023-03-23T00:54:07;99179.41;;;19.52;37.14
8637;BME280;4356;49.068;8.658;2023-03-23T00:56:33;99185.13;;;19.50;37.23
8637;BME280;4356;49.068;8.658;2023-03-23T00:58:58;99171.31;;;19.40;37.03
8637;BME280;4356;49.068;8.658;2023-03-23T01:01:24;99182.91;;;19.47;36.92
8637;BME280;4356;49.068;8.658;2023-03-23T01:03:50;99179.91;;;19.48;36.79
8637;BME280;4356;49.068;8.658;2023-03-23T01:06:18;99176.34;;;19.48;37.12
8637;BME280;4356;49.068;8.658;2023-03-23T01:08:43;99179.09;;;19.48;37.16
8637;BME280;4356;49.068;8.658;2023-03-23T01:11:15;99161.00;;;19.42;37.04
8637;BME280;4356;49.068;8.658;2023-03-23T01:13:44;99171.16;;;19.46;37.00
8637;BME280;4356;49.068;8.658;2023-03-23T01:16:10;99171.16;;;19.46;37.12
8637;BME280;4356;49.068;8.658;2023-03-23T01:18:37;99157.19;;;19.43;37.05
8637;BME280;4356;49.068;8.658;2023-03-23T01:21:09;99162.41;;;19.44;37.01
8637;BME280;4356;49.068;8.658;2023-03-23T01:23:36;99158.84;;;19.44;36.98
8637;BME280;4356;49.068;8.658;2023-03-23T01:26:11;99150.13;;;19.42;36.87
8637;BME280;4356;49.068;8.658;2023-03-23T01:28:37;99146.31;;;19.43;37.11
8637;BME280;4356;49.068;8.658;2023-03-23T01:31:05;99116.28;;;19.26;37.13
8637;BME280;4356;49.068;8.658;2023-03-23T01:33:31;99132.09;;;19.41;37.19
8637;BME280;4356;49.068;8.658;2023-03-23T01:35:58;99130.22;;;19.41;37.14
8637;BME280;4356;49.068;8.658;2023-03-23T01:38:26;99130.47;;;19.40;36.90
8637;BME280;4356;49.068;8.658;2023-03-23T01:40:52;99135.66;;;19.41;37.05
8637;BME280;4356;49.068;8.658;2023-03-23T01:43:18;99108.94;;;19.27;36.99
8637;BME280;4356;49.068;8.658;2023-03-23T01:45:43;99107.63;;;19.29;37.08
8637;BME280;4356;49.068;8.658;2023-03-23T01:48:15;99117.88;;;19.39;36.87
8637;BME280;4356;49.068;8.658;2023-03-23T01:50:51;99117.56;;;19.35;36.94
8637;BME280;4356;49.068;8.658;2023-03-23T01:53:19;99123.84;;;19.36;36.95
8637;BME280;4356;49.068;8.658;2023-03-23T01:55:47;99115.09;;;19.34;37.07
8637;BME280;4356;49.068;8.658;2023-03-23T01:58:17;99112.00;;;19.30;36.73
8637;BME280;4356;49.068;8.658;2023-03-23T02:00:44;99114.59;;;19.37;36.80
8637;BME280;4356;49.068;8.658;2023-03-23T02:03:11;99123.00;;;19.35;36.81
8637;BME280;4356;49.068;8.658;2023-03-23T02:05:41;99105.97;;;19.28;36.84
8637;BME280;4356;49.068;8.658;2023-03-23T02:08:08;99107.41;;;19.31;36.91
8637;BME280;4356;49.068;8.658;2023-03-23T02:10:36;99106.91;;;19.34;37.13
8637;BME280;4356;49.068;8.658;2023-03-23T02:13:05;99106.91;;;19.34;36.83
8637;BME280;4356;49.068;8.658;2023-03-23T02:18:16;99094.94;;;19.35;37.10
8637;BME280;4356;49.068;8.658;2023-03-23T02:23:39;99079.09;;;19.32;37.02
8637;BME280;4356;49.068;8.658;2023-03-23T02:26:24;99078.25;;;19.31;37.13
8637;BME280;4356;49.068;8.658;2023-03-23T02:31:47;99073.03;;;19.30;36.84
8637;BME280;4356;49.068;8.658;2023-03-23T02:34:32;99068.91;;;19.27;37.14
8637;BME280;4356;49.068;8.658;2023-03-23T02:37:09;99062.63;;;19.27;36.83
8637;BME280;4356;49.068;8.658;2023-03-23T02:39:42;99053.81;;;19.20;36.63
8637;BME280;4356;49.068;8.658;2023-03-23T02:42:12;99039.28;;;19.14;36.68
8637;BME280;4356;49.068;8.658;2023-03-23T02:44:41;99061.53;;;19.28;36.93
8637;BME280;4356;49.068;8.658;2023-03-23T02:47:14;99060.41;;;19.24;36.93
8637;BME280;4356;49.068;8.658;2023-03-23T02:49:42;99040.09;;;19.15;37.02
8637;BME280;4356;49.068;8.658;2023-03-23T02:52:14;99071.06;;;19.25;37.25
8637;BME280;4356;49.068;8.658;2023-03-23T02:54:42;99063.94;;;19.24;37.17
8637;BME280;4356;49.068;8.658;2023-03-23T02:57:10;99069.72;;;19.28;37.01
8637;BME280;4356;49.068;8.658;2023-03-23T02:59:36;99058.75;;;19.23;37.29
8637;BME280;4356;49.068;8.658;2023-03-23T03:02:12;99049.66;;;19.17;37.17
8637;BME280;4356;49.068;8.658;2023-03-23T03:04:41;99061.47;;;19.23;36.99
8637;BME280;4356;49.068;8.658;2023-03-23T03:07:23;99062.06;;;19.25;36.89
8637;BME280;4356;49.068;8.658;2023-03-23T03:10:10;99054.13;;;19.23;37.39
8637;BME280;4356;49.068;8.658;2023-03-23T03:13:01;99058.50;;;19.24;37.04
8637;BME280;4356;49.068;8.658;2023-03-23T03:15:36;99046.59;;;19.14;37.44
8637;BME280;4356;49.068;8.658;2023-03-23T03:18:12;99057.91;;;19.22;37.30
8637;BME280;4356;49.068;8.658;2023-03-23T03:20:54;99035.63;;;19.09;37.45
8637;BME280;4356;49.068;8.658;2023-03-23T03:23:22;99029.53;;;19.02;37.49
8637;BME280;4356;49.068;8.658;2023-03-23T03:25:50;99062.56;;;19.22;37.33
8637;BME280;4356;49.068;8.658;2023-03-23T03:28:20;99053.13;;;19.13;37.34
8637;BME280;4356;49.068;8.658;2023-03-23T03:30:54;99049.91;;;19.16;37.60
8637;BME280;4356;49.068;8.658;2023-03-23T03:33:22;99047.78;;;19.18;37.54
8637;BME280;4356;49.068;8.658;2023-03-23T03:35:54;99055.44;;;19.21;37.49
8637;BME280;4356;49.068;8.658;2023-03-23T03:38:23;99038.34;;;19.09;37.53
8637;BME280;4356;49.068;8.658;2023-03-23T03:40:49;99046.34;;;19.15;37.66
8637;BME280;4356;49.068;8.658;2023-03-23T03:43:15;99065.50;;;19.20;37.68
8637;BME280;4356;49.068;8.658;2023-03-23T03:45:43;99052.88;;;19.14;37.64
8637;BME280;4356;49.068;8.658;2023-03-23T03:48:10;99044.63;;;19.09;37.74
8637;BME280;4356;49.068;8.658;2023-03-23T03:50:36;99064.38;;;19.16;37.72
8637;BME280;4356;49.068;8.658;2023-03-23T03:53:02;99070.94;;;19.20;37.75
8637;BME280;4356;49.068;8.658;2023-03-23T03:55:28;99046.28;;;19.10;37.97
8637;BME280;4356;49.068;8.658;2023-03-23T03:57:54;99065.16;;;19.17;37.62
8637;BME280;4356;49.068;8.658;2023-03-23T04:00:20;99064.38;;;19.16;37.89
8637;BME280;4356;49.068;8.658;2023-03-23T04:02:48;99061.63;;;19.16;37.72
8637;BME280;4356;49.068;8.658;2023-03-23T04:05:17;99067.88;;;19.17;37.91
8637;BME280;4356;49.068;8.658;2023-03-23T04:07:44;99064.38;;;19.16;37.72
8637;BME280;4356;49.068;8.658;2023-03-23T04:10:11;99064.84;;;19.13;38.19
8637;BME280;4356;49.068;8.658;2023-03-23T04:12:38;99052.22;;;19.07;37.98
8637;BME280;4356;49.068;8.658;2023-03-23T04:15:05;99062.69;;;19.15;38.07
8637;BME280;4356;49.068;8.658;2023-03-23T04:17:31;99056.09;;;19.11;38.06
8637;BME280;4356;49.068;8.658;2023-03-23T04:19:56;99060.72;;;19.11;37.76
8637;BME280;4356;49.068;8.658;2023-03-23T04:22:23;99062.13;;;19.13;38.01
8637;BME280;4356;49.068;8.658;2023-03-23T04:24:57;99070.88;;;19.15;38.22
8637;BME280;4356;49.068;8.658;2023-03-23T04:27:24;99070.78;;;19.10;38.26
8637;BME280;4356;49.068;8.658;2023-03-23T04:29:50;99077.88;;;19.11;38.24
8637;BME280;4356;49.068;8.658;2023-03-23T04:32:16;99072.41;;;19.11;38.27
8637;BME280;4356;49.068;8.658;2023-03-23T04:34:44;99072.09;;;19.08;38.13
8637;BME280;4356;49.068;8.658;2023-03-23T04:37:10;99082.19;;;19.07;38.02
8637;BME280;4356;49.068;8.658;2023-03-23T04:39:35;99072.00;;;19.03;38.21
8637;BME280;4356;49.068;8.658;2023-03-23T04:42:01;99083.81;;;19.08;38.07
8637;BME280;4356;49.068;8.658;2023-03-23T04:44:28;99071.91;;;18.98;38.22
8637;BME280;4356;49.068;8.658;2023-03-23T04:46:54;99084.06;;;19.07;37.89
8637;BME280;4356;49.068;8.658;2023-03-23T04:49:20;99072.25;;;19.01;38.11
8637;BME280;4356;49.068;8.658;2023-03-23T04:51:46;99081.94;;;19.09;38.17
8637;BME280;4356;49.068;8.658;2023-03-23T04:54:11;99074.81;;;19.08;38.09
8637;BME280;4356;49.068;8.658;2023-03-23T04:56:38;99086.78;;;19.07;38.02
8637;BME280;4356;49.068;8.658;2023-03-23T04:59:03;99085.38;;;19.04;38.31
8637;BME280;4356;49.068;8.658;2023-03-23T05:01:31;99104.44;;;19.04;38.39
8637;BME280;4356;49.068;8.658;2023-03-23T05:03:57;99114.59;;;19.09;38.26
8637;BME280;4356;49.068;8.658;2023-03-23T05:06:22;99101.25;;;19.07;38.30
8637;BME280;4356;49.068;8.658;2023-03-23T05:08:48;99113.19;;;19.06;38.15
8637;BME280;4356;49.068;8.658;2023-03-23T05:11:16;99110.47;;;19.06;38.12
8637;BME280;4356;49.068;8.658;2023-03-23T05:13:41;99122.19;;;19.07;38.44
8637;BME280;4356;49.068;8.658;2023-03-23T05:16:09;99118.88;;;19.05;38.10
8637;BME280;4356;49.068;8.658;2023-03-23T05:18:35;99126.22;;;19.04;38.12
8637;BME280;4356;49.068;8.658;2023-03-23T05:21:02;99136.88;;;19.06;38.28
8637;BME280;4356;49.068;8.658;2023-03-23T05:23:29;99119.03;;;18.98;37.80
8637;BME280;4356;49.068;8.658;2023-03-23T05:25:57;99136.31;;;19.04;37.79
8637;BME280;4356;49.068;8.658;2023-03-23T05:28:26;99115.66;;;18.91;38.21
8637;BME280;4356;49.068;8.658;2023-03-23T05:30:54;99146.38;;;19.03;37.91
8637;BME280;4356;49.068;8.658;2023-03-23T05:33:21;99146.84;;;19.00;38.03
8637;BME280;4356;49.068;8.658;2023-03-23T05:35:47;99152.06;;;19.02;38.40
8637;BME280;4356;49.068;8.658;2023-03-23T05:38:14;99145.19;;;18.99;38.29
8637;BME280;4356;49.068;8.658;2023-03-23T05:40:40;99140.00;;;18.98;38.11
8637;BME280;4356;49.068;8.658;2023-03-23T05:43:09;99149.25;;;18.97;38.47
8637;BME280;4356;49.068;8.658;2023-03-23T05:45:35;99146.53;;;18.97;38.92
8637;BME280;4356;49.068;8.658;2023-03-23T05:48:01;99144.84;;;18.96;38.70
8637;BME280;4356;49.068;8.658;2023-03-23T05:50:27;99143.78;;;18.97;38.57
8637;BME280;4356;49.068;8.658;2023-03-23T05:52:54;99132.69;;;18.87;38.87
8637;BME280;4356;49.068;8.658;2023-03-23T05:55:20;99160.13;;;18.97;38.62
8637;BME280;4356;49.068;8.658;2023-03-23T05:57:46;99150.78;;;18.93;38.76
8637;BME280;4356;49.068;8.658;2023-03-23T06:00:12;99165.59;;;18.97;38.64
8637;BME280;4356;49.068;8.658;2023-03-23T06:02:53;99152.69;;;18.92;38.62
8637;BME280;4356;49.068;8.658;2023-03-23T06:05:19;99162.72;;;18.92;38.75
8637;BME280;4356;49.068;8.658;2023-03-23T06:07:45;99169.09;;;18.97;39.06
8637;BME280;4356;49.068;8.658;2023-03-23T06:10:11;99172.91;;;18.96;38.96
8637;BME280;4356;49.068;8.658;2023-03-23T06:12:38;99173.75;;;18.97;39.11
8637;BME280;4356;49.068;8.658;2023-03-23T06:15:06;99166.53;;;18.91;39.24
8637;BME280;4356;49.068;8.658;2023-03-23T06:17:33;99180.50;;;18.94;39.28
8637;BME280;4356;49.068;8.658;2023-03-23T06:19:59;99169.34;;;18.96;39.06
8637;BME280;4356;49.068;8.658;2023-03-23T06:22:25;99170.53;;;19.00;39.27
8637;BME280;4356;49.068;8.658;2023-03-23T06:24:52;99173.00;;;19.01;39.29
8637;BME280;4356;49.068;8.658;2023-03-23T06:27:17;99169.56;;;19.06;39.45
8637;BME280;4356;49.068;8.658;2023-03-23T06:29:43;99171.38;;;19.00;39.10
8637;BME280;4356;49.068;8.658;2023-03-23T06:32:10;99180.94;;;19.03;39.14
8637;BME280;4356;49.068;8.658;2023-03-23T06:34:37;99174.78;;;18.96;39.22
8637;BME280;4356;49.068;8.658;2023-03-23T06:37:04;99182.25;;;19.00;39.14
8637;BME280;4356;49.068;8.658;2023-03-23T06:39:30;99192.25;;;19.11;39.04
8637;BME280;4356;49.068;8.658;2023-03-23T06:41:57;99197.22;;;19.14;39.01
8637;BME280;4356;49.068;8.658;2023-03-23T06:44:25;99202.34;;;19.11;38.96
8637;BME280;4356;49.068;8.658;2023-03-23T06:46:50;99203.50;;;19.15;39.24
8637;BME280;4356;49.068;8.658;2023-03-23T06:49:21;99182.00;;;19.02;39.07
8637;BME280;4356;49.068;8.658;2023-03-23T06:51:49;99201.25;;;19.12;39.01
8637;BME280;4356;49.068;8.658;2023-03-23T06:54:15;99199.28;;;19.07;39.19
8637;BME280;4356;49.068;8.658;2023-03-23T06:56:41;99210.59;;;19.16;39.03
8637;BME280;4356;49.068;8.658;2023-03-23T06:59:06;99211.91;;;19.13;39.06
8637;BME280;4356;49.068;8.658;2023-03-23T07:01:32;99225.06;;;19.16;38.77
8637;BME280;4356;49.068;8.658;2023-03-23T07:03:58;99232.16;;;19.17;38.89
8637;BME280;4356;49.068;8.658;2023-03-23T07:06:24;99228.38;;;19.18;39.04
8637;BME280;4356;49.068;8.658;2023-03-23T07:08:51;99235.94;;;19.16;38.79
8637;BME280;4356;49.068;8.658;2023-03-23T07:11:16;99237.50;;;19.12;38.85
8637;BME280;4356;49.068;8.658;2023-03-23T07:13:42;99251.72;;;19.14;38.77
8637;BME280;4356;49.068;8.658;2023-03-23T07:16:08;99255.47;;;19.13;39.05
8637;BME280;4356;49.068;8.658;2023-03-23T07:18:34;99270.38;;;19.22;38.55
8637;BME280;4356;49.068;8.658;2023-03-23T07:21:00;99273.09;;;19.22;39.05
8637;BME280;4356;49.068;8.658;2023-03-23T07:23:25;99276.66;;;19.23;38.80
8637;BME280;4356;49.068;8.658;2023-03-23T07:25:52;99277.84;;;19.27;39.05
8637;BME280;4356;49.068;8.658;2023-03-23T07:28:19;99279.97;;;19.25;38.84
8637;BME280;4356;49.068;8.658;2023-03-23T07:30:45;99275.59;;;19.24;38.57
8637;BME280;4356;49.068;8.658;2023-03-23T07:33:12;99270.72;;;19.26;38.93
8637;BME280;4356;49.068;8.658;2023-03-23T07:35:38;99265.75;;;19.23;38.99
8637;BME280;4356;49.068;8.658;2023-03-23T07:38:05;99263.13;;;19.28;39.33
8637;BME280;4356;49.068;8.658;2023-03-23T07:40:32;99270.63;;;19.32;38.95
8637;BME280;4356;49.068;8.658;2023-03-23T07:43:04;99278.78;;;19.32;38.97
8637;BME280;4356;49.068;8.658;2023-03-23T07:45:31;99269.41;;;19.28;38.78
8637;BME280;4356;49.068;8.658;2023-03-23T07:47:57;99264.47;;;19.25;38.99
8637;BME280;4356;49.068;8.658;2023-03-23T07:50:23;99270.88;;;19.31;39.15
8637;BME280;4356;49.068;8.658;2023-03-23T07:52:59;99278.19;;;19.30;39.50
8637;BME280;4356;49.068;8.658;2023-03-23T07:55:25;99281.63;;;19.37;39.18
8637;BME280;4356;49.068;8.658;2023-03-23T07:57:53;99278.78;;;19.32;39.30
8637;BME280;4356;49.068;8.658;2023-03-23T08:00:20;99277.84;;;19.38;39.13
8637;BME280;4356;49.068;8.658;2023-03-23T08:02:51;99283.28;;;19.38;39.51
8637;BME280;4356;49.068;8.658;2023-03-23T08:05:18;99292.03;;;19.40;39.23
8637;BME280;4356;49.068;8.658;2023-03-23T08:07:44;99287.06;;;19.37;39.17
8637;BME280;4356;49.068;8.658;2023-03-23T08:10:13;99289.09;;;19.42;39.17
8637;BME280;4356;49.068;8.658;2023-03-23T08:12:41;99293.44;;;19.43;39.08
8637;BME280;4356;49.068;8.658;2023-03-23T08:15:09;99295.34;;;19.42;39.31
8637;BME280;4356;49.068;8.658;2023-03-23T08:17:38;99292.59;;;19.42;39.41
8637;BME280;4356;49.068;8.658;2023-03-23T08:20:06;99298.66;;;19.44;39.68
8637;BME280;4356;49.068;8.658;2023-03-23T08:22:42;99284.69;;;19.41;39.63
8637;BME280;4356;49.068;8.658;2023-03-23T08:25:12;99298.91;;;19.43;39.41
8637;BME280;4356;49.068;8.658;2023-03-23T08:27:39;99299.22;;;19.46;39.58
8637;BME280;4356;49.068;8.658;2023-03-23T08:30:15;99297.59;;;19.45;39.84
8637;BME280;4356;49.068;8.658;2023-03-23T08:32:41;99303.25;;;19.44;39.70
8637;BME280;4356;49.068;8.658;2023-03-23T08:35:08;99295.66;;;19.46;40.13
8637;BME280;4356;49.068;8.658;2023-03-23T08:37:35;99312.16;;;19.51;39.79
8637;BME280;4356;49.068;8.658;2023-03-23T08:40:04;99293.19;;;19.44;40.00
8637;BME280;4356;49.068;8.658;2023-03-23T08:42:35;99296.25;;;19.48;39.73
8637;BME280;4356;49.068;8.658;2023-03-23T08:45:01;99292.94;;;19.46;39.73
8637;BME280;4356;49.068;8.658;2023-03-23T08:47:27;99287.84;;;19.49;39.54
8637;BME280;4356;49.068;8.658;2023-03-23T08:49:52;99299.66;;;19.55;39.57
8637;BME280;4356;49.068;8.658;2023-03-23T08:52:19;99306.53;;;19.58;39.82
8637;BME280;4356;49.068;8.658;2023-03-23T08:54:46;99302.19;;;19.57;39.79
8637;BME280;4356;49.068;8.658;2023-03-23T08:57:13;99312.84;;;19.58;39.85
8637;BME280;4356;49.068;8.658;2023-03-23T08:59:43;99301.47;;;19.49;39.80
8637;BME280;4356;49.068;8.658;2023-03-23T09:02:10;99322.66;;;19.59;39.68
8637;BME280;4356;49.068;8.658;2023-03-23T09:04:39;99322.41;;;19.61;40.05
8637;BME280;4356;49.068;8.658;2023-03-23T09:07:09;99309.19;;;19.53;39.77
8637;BME280;4356;49.068;8.658;2023-03-23T09:09:36;99313.28;;;19.55;39.67
8637;BME280;4356;49.068;8.658;2023-03-23T09:12:03;99332.00;;;19.63;39.73
8637;BME280;4356;49.068;8.658;2023-03-23T09:14:28;99321.72;;;19.54;39.78
8637;BME280;4356;49.068;8.658;2023-03-23T09:16:54;99337.44;;;19.63;39.59
8637;BME280;4356;49.068;8.658;2023-03-23T09:19:19;99329.91;;;19.54;39.47
8637;BME280;4356;49.068;8.658;2023-03-23T09:21:46;99347.06;;;19.66;39.26
8637;BME280;4356;49.068;8.658;2023-03-23T09:24:12;99353.81;;;19.63;39.36
8637;BME280;4356;49.068;8.658;2023-03-23T09:26:37;99348.34;;;19.63;39.13
8637;BME280;4356;49.068;8.658;2023-03-23T09:29:06;99362.81;;;19.64;38.86
8637;BME280;4356;49.068;8.658;2023-03-23T09:31:31;99371.00;;;19.64;38.95
8637;BME280;4356;49.068;8.658;2023-03-23T09:33:58;99360.81;;;19.59;39.34
8637;BME280;4356;49.068;8.658;2023-03-23T09:36:24;99344.38;;;19.42;39.42
8637;BME280;4356;49.068;8.658;2023-03-23T09:38:51;99380.72;;;19.60;39.45
8637;BME280;4356;49.068;8.658;2023-03-23T09:47:08;99388.91;;;19.60;39.82
8637;BME280;4356;49.068;8.658;2023-03-23T09:49:43;99377.41;;;19.58;39.46
8637;BME280;4356;49.068;8.658;2023-03-23T09:52:17;99389.16;;;19.58;39.52
8637;BME280;4356;49.068;8.658;2023-03-23T09:54:54;99377.06;;;19.54;39.80
8637;BME280;4356;49.068;8.658;2023-03-23T09:57:34;99391.88;;;19.58;39.83
8637;BME280;4356;49.068;8.658;2023-03-23T10:00:26;99387.97;;;19.54;39.74
8637;BME280;4356;49.068;8.658;2023-03-23T10:02:59;99397.06;;;19.60;39.45
8637;BME280;4356;49.068;8.658;2023-03-23T10:05:53;99386.06;;;19.55;39.83
8637;BME280;4356;49.068;8.658;2023-03-23T10:08:30;99394.59;;;19.58;39.84
8637;BME280;4356;49.068;8.658;2023-03-23T10:11:02;99389.94;;;19.59;40.42
8637;BME280;4356;49.068;8.658;2023-03-23T10:16:13;99411.75;;;19.59;40.18
8637;BME280;4356;49.068;8.658;2023-03-23T10:18:46;99403.03;;;19.57;39.87
8637;BME280;4356;49.068;8.658;2023-03-23T10:21:17;99403.38;;;19.60;40.19
8637;BME280;4356;49.068;8.658;2023-03-23T10:24:02;99401.44;;;19.61;40.94
8637;BME280;4356;49.068;8.658;2023-03-23T10:29:17;99405.59;;;19.63;40.70
8637;BME280;4356;49.068;8.658;2023-03-23T10:31:56;99397.66;;;19.62;41.29
8637;BME280;4356;49.068;8.658;2023-03-23T10:34:32;99400.16;;;19.63;41.03
8637;BME280;4356;49.068;8.658;2023-03-23T10:37:16;99406.78;;;19.67;41.25
8637;BME280;4356;49.068;8.658;2023-03-23T10:40:05;99408.41;;;19.68;41.52
8637;BME280;4356;49.068;8.658;2023-03-23T10:42:37;99396.50;;;19.58;40.53
8637;BME280;4356;49.068;8.658;2023-03-23T10:45:28;99394.34;;;19.60;41.57
8637;BME280;4356;49.068;8.658;2023-03-23T10:50:35;99357.66;;;19.51;41.71
8637;BME280;4356;49.068;8.658;2023-03-23T10:53:45;99397.63;;;19.73;41.83
8637;BME280;4356;49.068;8.658;2023-03-23T10:56:04;99376.91;;;19.61;41.42
8637;BME280;4356;49.068;8.658;2023-03-23T10:58:33;99398.69;;;19.72;41.63
8637;BME280;4356;49.068;8.658;2023-03-23T11:01:01;99379.78;;;19.66;41.52
8637;BME280;4356;49.068;8.658;2023-03-23T11:03:43;99363.03;;;19.62;41.76
8637;BME280;4356;49.068;8.658;2023-03-23T11:06:17;99380.44;;;19.73;41.13
8637;BME280;4356;49.068;8.658;2023-03-23T11:08:55;99395.47;;;19.75;41.20
8637;BME280;4356;49.068;8.658;2023-03-23T11:11:28;99372.28;;;19.61;41.45
8637;BME280;4356;49.068;8.658;2023-03-23T11:14:02;99394.41;;;19.76;41.71
8637;BME280;4356;49.068;8.658;2023-03-23T11:16:33;99402.34;;;19.78;41.42
8637;BME280;4356;49.068;8.658;2023-03-23T11:19:13;99387.06;;;19.77;41.09
8637;BME280;4356;49.068;8.658;2023-03-23T11:21:40;99392.16;;;19.73;41.30
8637;BME280;4356;49.068;8.658;2023-03-23T11:24:08;99400.13;;;19.75;41.47
8637;BME280;4356;49.068;8.658;2023-03-23T11:26:38;99397.63;;;19.73;41.51
8637;BME280;4356;49.068;8.658;2023-03-23T11:29:27;99386.53;;;19.63;41.51
8637;BME280;4356;49.068;8.658;2023-03-23T11:32:12;99414.44;;;19.82;40.88
8637;BME280;4356;49.068;8.658;2023-03-23T11:34:43;99413.00;;;19.79;41.21
8637;BME280;4356;49.068;8.658;2023-03-23T11:37:13;99406.38;;;19.75;41.20
8637;BME280;4356;49.068;8.658;2023-03-23T11:39:54;99399.75;;;19.71;41.54
8637;BME280;4356;49.068;8.658;2023-03-23T11:42:34;99417.16;;;19.82;41.65
8637;BME280;4356;49.068;8.658;2023-03-23T11:48:11;99420.00;;;19.87;41.78
8637;BME280;4356;49.068;8.658;2023-03-23T11:50:47;99408.25;;;19.86;41.64
8637;BME280;4356;49.068;8.658;2023-03-23T11:56:13;99391.69;;;19.76;41.76
8637;BME280;4356;49.068;8.658;2023-03-23T11:58:40;99394.38;;;19.88;41.34
8637;BME280;4356;49.068;8.658;2023-03-23T12:01:16;99380.72;;;19.88;41.10
8637;BME280;4356;49.068;8.658;2023-03-23T12:09:24;99375.53;;;19.86;41.61
8637;BME280;4356;49.068;8.658;2023-03-23T12:12:11;99381.31;;;19.90;40.48
8637;BME280;4356;49.068;8.658;2023-03-23T12:14:50;99386.53;;;19.91;40.94
8637;BME280;4356;49.068;8.658;2023-03-23T12:17:22;99385.72;;;19.91;40.72
8637;BME280;4356;49.068;8.658;2023-03-23T12:20:37;99381.66;;;19.93;40.74
8637;BME280;4356;49.068;8.658;2023-03-23T12:23:00;99369.09;;;19.92;41.23
8637;BME280;4356;49.068;8.658;2023-03-23T12:31:01;99365.88;;;19.95;40.88
8637;BME280;4356;49.068;8.658;2023-03-23T12:33:45;99364.00;;;19.96;41.00
8637;BME280;4356;49.068;8.658;2023-03-23T12:39:48;99353.66;;;19.98;40.88
8637;BME280;4356;49.068;8.658;2023-03-23T12:42:40;99354.50;;;19.98;40.98
8637;BME280;4356;49.068;8.658;2023-03-23T12:45:41;99350.69;;;19.99;40.80
8637;BME280;4356;49.068;8.658;2023-03-23T12:48:13;99347.13;;;19.99;40.45
8637;BME280;4356;49.068;8.658;2023-03-23T12:51:09;99343.94;;;20.02;40.74
8637;BME280;4356;49.068;8.658;2023-03-23T12:53:48;99330.69;;;19.94;40.58
8637;BME280;4356;49.068;8.658;2023-03-23T12:56:41;99329.47;;;20.01;40.67
8637;BME280;4356;49.068;8.658;2023-03-23T13:01:51;99322.91;;;20.02;40.58
8637;BME280;4356;49.068;8.658;2023-03-23T13:04:32;99324.66;;;20.08;40.83
8637;BME280;4356;49.068;8.658;2023-03-23T13:07:05;99322.53;;;20.10;40.03
8637;BME280;4356;49.068;8.658;2023-03-23T13:09:55;99321.09;;;20.08;40.06
8637;BME280;4356;49.068;8.658;2023-03-23T13:12:25;99326.66;;;20.13;40.26
8637;BME280;4356;49.068;8.658;2023-03-23T13:15:29;99315.41;;;20.09;40.43
8637;BME280;4356;49.068;8.658;2023-03-23T13:18:07;99314.69;;;20.14;40.37
8637;BME280;4356;49.068;8.658;2023-03-23T13:20:55;99304.50;;;20.09;40.52
8637;BME280;4356;49.068;8.658;2023-03-23T13:23:25;99312.78;;;20.14;40.37
8637;BME280;4356;49.068;8.658;2023-03-23T13:26:01;99309.59;;;20.17;40.43
8637;BME280;4356;49.068;8.658;2023-03-23T13:31:17;99296.53;;;20.19;40.66
8637;BME280;4356;49.068;8.658;2023-03-23T13:33:51;99285.88;;;20.18;40.67
8637;BME280;4356;49.068;8.658;2023-03-23T13:36:34;99272.22;;;20.18;40.61
8637;BME280;4356;49.068;8.658;2023-03-23T13:39:04;99285.88;;;20.18;40.13
8637;BME280;4356;49.068;8.658;2023-03-23T13:41:33;99268.16;;;20.20;40.64
8637;BME280;4356;49.068;8.658;2023-03-23T13:44:17;99269.84;;;20.21;40.56
8637;BME280;4356;49.068;8.658;2023-03-23T13:46:57;99267.69;;;20.23;40.54
8637;BME280;4356;49.068;8.658;2023-03-23T13:49:31;99266.34;;;20.26;40.49
8637;BME280;4356;49.068;8.658;2023-03-23T13:52:24;99263.34;;;20.27;40.35
8637;BME280;4356;49.068;8.658;2023-03-23T13:58:10;99260.63;;;20.27;40.40
8637;BME280;4356;49.068;8.658;2023-03-23T14:00:48;99249.72;;;20.27;40.54
8637;BME280;4356;49.068;8.658;2023-03-23T14:06:18;99259.56;;;20.28;40.34
8637;BME280;4356;49.068;8.658;2023-03-23T14:08:50;99238.72;;;20.22;40.31
8637;BME280;4356;49.068;8.658;2023-03-23T14:11:28;99250.88;;;20.31;40.50
8637;BME280;4356;49.068;8.658;2023-03-23T14:14:07;99260.72;;;20.32;40.45
8637;BME280;4356;49.068;8.658;2023-03-23T14:16:41;99258.81;;;20.33;40.54
8637;BME280;4356;49.068;8.658;2023-03-23T14:19:24;99254.44;;;20.32;40.86
8637;BME280;4356;49.068;8.658;2023-03-23T14:21:55;99256.91;;;20.33;40.08
8637;BME280;4356;49.068;8.658;2023-03-23T14:24:24;99262.69;;;20.37;40.23
8637;BME280;4356;49.068;8.658;2023-03-23T14:26:51;99255.03;;;20.34;40.31
8637;BME280;4356;49.068;8.658;2023-03-23T14:29:18;99255.94;;;20.39;40.19
8637;BME280;4356;49.068;8.658;2023-03-23T14:31:50;99255.34;;;20.37;40.18
8637;BME280;4356;49.068;8.658;2023-03-23T14:34:24;99265.75;;;20.40;40.12
8637;BME280;4356;49.068;8.658;2023-03-23T14:36:53;99259.72;;;20.38;40.07